createdAt,value
2019-02-15T00:01:08.913Z,23.77
2019-02-15T00:03:38.381Z,29.47
2019-02-15T00:06:08.179Z,22.97
2019-02-15T00:08:37.661Z,24.57
2019-02-15T00:11:07.141Z,22.00
2019-02-15T00:13:36.647Z,21.33
2019-02-15T00:16:06.138Z,22.93
2019-02-15T00:18:49.326Z,25.17
2019-02-15T00:21:20.462Z,24.23
2019-02-15T00:23:50.264Z,21.57
2019-02-15T00:26:20.094Z,22.60
2019-02-15T00:28:49.575Z,24.50
2019-02-15T00:31:19.424Z,23.27
2019-02-15T00:33:48.919Z,24.23
2019-02-15T00:36:18.727Z,23.33
2019-02-15T00:38:48.538Z,23.23
2019-02-15T00:41:29.576Z,20.17
2019-02-15T00:44:01.944Z,24.70
2019-02-15T00:46:35.774Z,22.57
2019-02-15T00:49:06.041Z,28.90
2019-02-15T00:51:42.597Z,23.47
2019-02-15T00:54:16.719Z,24.70
2019-02-15T00:57:04.759Z,30.23
2019-02-15T00:59:41.687Z,28.03
2019-02-15T01:02:18.739Z,25.83
2019-02-15T01:04:59.118Z,28.33
2019-02-15T01:07:39.369Z,24.87
2019-02-15T01:10:28.671Z,29.27
2019-02-15T01:13:05.730Z,26.37
2019-02-15T01:15:35.716Z,30.03
2019-02-15T01:18:05.201Z,26.40
2019-02-15T01:20:34.957Z,26.13
2019-02-15T01:23:04.467Z,27.57
2019-02-15T01:25:35.582Z,26.77
2019-02-15T01:28:12.392Z,28.53
2019-02-15T01:30:49.243Z,36.30
2019-02-15T01:33:32.356Z,23.47
2019-02-15T01:36:12.729Z,27.13
2019-02-15T01:38:44.155Z,24.03
2019-02-15T01:41:17.948Z,32.77
2019-02-15T01:43:49.057Z,27.13
2019-02-15T01:46:20.183Z,26.70
2019-02-15T01:48:49.702Z,36.17
2019-02-15T01:51:19.495Z,26.63
2019-02-15T01:53:48.986Z,26.97
2019-02-15T01:56:18.490Z,25.13
2019-02-15T01:58:48.011Z,30.93
2019-02-15T02:01:19.106Z,27.60
2019-02-15T02:03:48.776Z,35.50
2019-02-15T02:06:18.761Z,24.93
2019-02-15T02:08:48.300Z,26.97
2019-02-15T02:11:17.844Z,30.97
2019-02-15T02:13:49.581Z,26.40
2019-02-15T02:16:18.953Z,27.80
2019-02-15T02:18:48.962Z,24.53
2019-02-15T02:21:18.605Z,24.33
2019-02-15T02:23:48.256Z,23.97
2019-02-15T02:26:18.110Z,22.87
2019-02-15T02:28:48.385Z,19.97
2019-02-15T02:31:19.571Z,21.77
2019-02-15T02:33:49.341Z,26.00
2019-02-15T02:36:18.983Z,22.70
2019-02-15T02:38:49.139Z,32.40
2019-02-15T02:41:18.688Z,23.83
2019-02-15T02:43:48.342Z,24.67
2019-02-15T02:46:17.893Z,23.03
2019-02-15T02:48:47.550Z,24.83
2019-02-15T02:51:17.190Z,22.13
2019-02-15T02:53:46.678Z,27.57
2019-02-15T02:56:16.238Z,22.70
2019-02-15T02:58:49.072Z,23.90
2019-02-15T03:01:18.581Z,25.97
2019-02-15T03:03:48.162Z,26.80
2019-02-15T03:06:17.627Z,29.07
2019-02-15T03:08:47.120Z,30.00
2019-02-15T03:11:16.583Z,27.67
2019-02-15T03:13:46.062Z,22.50
2019-02-15T03:16:17.037Z,25.80
2019-02-15T03:18:46.604Z,29.53
2019-02-15T03:21:19.073Z,24.77
2019-02-15T03:23:47.254Z,24.00
2019-02-15T03:26:18.736Z,26.93
2019-02-15T03:28:48.237Z,26.50
2019-02-15T03:31:17.719Z,26.80
2019-02-15T03:33:47.480Z,23.23
2019-02-15T03:36:21.252Z,30.60
2019-02-15T03:38:52.725Z,31.07
2019-02-15T03:41:29.930Z,27.13
2019-02-15T03:43:59.406Z,33.40
2019-02-15T03:46:28.872Z,26.70
2019-02-15T03:48:58.359Z,31.07
2019-02-15T03:51:27.838Z,33.80
2019-02-15T03:53:57.345Z,25.73
2019-02-15T03:56:26.792Z,28.23
2019-02-15T03:58:56.298Z,33.63
2019-02-15T04:01:25.756Z,24.67
2019-02-15T04:03:55.666Z,27.07
2019-02-15T04:06:25.596Z,29.37
2019-02-15T04:08:55.061Z,30.40
2019-02-15T04:11:24.561Z,28.83
2019-02-15T04:13:54.025Z,29.83
2019-02-15T04:16:23.517Z,26.90
2019-02-15T04:18:53.332Z,28.70
2019-02-15T04:21:23.124Z,30.97
2019-02-15T04:23:52.817Z,39.53
2019-02-15T04:26:22.698Z,28.07
2019-02-15T04:28:52.187Z,27.93
2019-02-15T04:31:21.677Z,26.53
2019-02-15T04:33:51.422Z,28.27
2019-02-15T04:36:20.900Z,24.80
2019-02-15T04:38:50.395Z,27.30
2019-02-15T04:41:19.889Z,27.30
2019-02-15T04:43:49.361Z,26.53
2019-02-15T04:46:18.868Z,32.37
2019-02-15T04:48:48.416Z,27.87
2019-02-15T04:51:18.462Z,33.50
2019-02-15T04:53:47.921Z,25.57
2019-02-15T04:56:18.917Z,28.53
2019-02-15T04:58:48.353Z,34.80
2019-02-15T05:01:18.199Z,25.83
2019-02-15T05:03:47.722Z,37.33
2019-02-15T05:06:17.208Z,28.00
2019-02-15T05:08:47.437Z,28.30
2019-02-15T05:11:18.049Z,30.77
2019-02-15T05:13:47.520Z,31.83
2019-02-15T05:16:17.006Z,30.63
2019-02-15T05:18:46.482Z,27.23
2019-02-15T05:21:16.291Z,32.13
2019-02-15T05:23:45.775Z,26.07
2019-02-15T05:26:15.246Z,32.03
2019-02-15T05:28:44.746Z,27.53
2019-02-15T05:31:14.360Z,28.97
2019-02-15T05:33:43.856Z,32.20
2019-02-15T05:36:13.404Z,29.57
2019-02-15T05:38:42.902Z,34.57
2019-02-15T05:41:12.387Z,25.80
2019-02-15T05:43:41.880Z,25.40
2019-02-15T05:46:11.453Z,31.13
2019-02-15T05:48:40.958Z,28.90
2019-02-15T05:51:10.450Z,39.70
2019-02-15T05:53:39.943Z,37.30
2019-02-15T05:56:09.403Z,34.60
2019-02-15T05:58:38.897Z,31.50
2019-02-15T06:01:10.034Z,31.77
2019-02-15T06:03:39.505Z,26.67
2019-02-15T06:06:09.005Z,27.77
2019-02-15T06:08:38.474Z,41.90
2019-02-15T06:11:08.462Z,34.67
2019-02-15T06:13:38.004Z,30.23
2019-02-15T06:16:07.496Z,35.97
2019-02-15T06:18:36.966Z,27.20
2019-02-15T06:21:06.456Z,31.70
2019-02-15T06:23:35.963Z,38.17
2019-02-15T06:26:05.437Z,31.03
2019-02-15T06:28:34.915Z,35.30
2019-02-15T06:31:04.721Z,30.03
2019-02-15T06:33:34.561Z,44.53
2019-02-15T06:36:04.326Z,31.73
2019-02-15T06:38:35.013Z,32.13
2019-02-15T06:41:04.776Z,38.47
2019-02-15T06:43:34.588Z,39.17
2019-02-15T06:46:04.407Z,35.57
2019-02-15T06:48:33.883Z,29.87
2019-02-15T06:51:03.405Z,23.13
2019-02-15T06:53:32.862Z,24.43
2019-02-15T06:56:02.376Z,28.93
2019-02-15T06:58:31.959Z,25.83
2019-02-15T07:01:06.021Z,24.90
2019-02-15T07:03:49.510Z,24.53
2019-02-15T07:06:19.260Z,23.40
2019-02-15T07:08:48.729Z,20.97
2019-02-15T07:11:18.513Z,19.20
2019-02-15T07:13:48.061Z,17.37
2019-02-15T07:16:18.101Z,18.97
2019-02-15T07:18:47.582Z,22.27
2019-02-15T07:21:17.076Z,21.93
2019-02-15T07:23:46.564Z,14.33
2019-02-15T07:26:16.036Z,17.77
2019-02-15T07:28:48.658Z,18.50
2019-02-15T07:31:18.168Z,19.60
2019-02-15T07:33:47.663Z,18.50
2019-02-15T07:36:20.188Z,19.43
2019-02-15T07:38:48.321Z,22.13
2019-02-15T07:41:17.819Z,21.63
2019-02-15T07:43:47.301Z,21.00
2019-02-15T07:46:18.318Z,28.63
2019-02-15T07:48:47.787Z,21.50
2019-02-15T07:51:17.280Z,22.53
2019-02-15T07:53:46.776Z,23.47
2019-02-15T07:56:16.525Z,18.60
2019-02-15T07:58:46.003Z,22.17
2019-02-15T08:01:15.514Z,21.37
2019-02-15T08:03:44.987Z,21.03
2019-02-15T08:06:14.492Z,17.63
2019-02-15T08:08:43.994Z,20.40
2019-02-15T08:11:13.477Z,18.00
2019-02-15T08:13:42.970Z,17.07
2019-02-15T08:16:12.462Z,20.27
2019-02-15T08:18:42.235Z,19.33
2019-02-15T08:21:13.209Z,16.70
2019-02-15T08:23:42.935Z,19.83
2019-02-15T08:26:12.699Z,23.23
2019-02-15T08:28:42.520Z,19.93
2019-02-15T08:31:12.436Z,20.43
2019-02-15T08:33:41.916Z,18.07
2019-02-15T08:36:11.384Z,17.20
2019-02-15T08:38:41.150Z,17.93
2019-02-15T08:41:10.640Z,17.53
2019-02-15T08:43:40.117Z,14.90
2019-02-15T08:46:09.631Z,20.13
2019-02-15T08:48:45.930Z,16.00
2019-02-15T08:51:10.629Z,16.60
2019-02-15T08:53:40.104Z,15.53
2019-02-15T08:56:09.589Z,14.73
2019-02-15T08:58:39.054Z,14.53
2019-02-15T09:01:08.543Z,17.83
2019-02-15T09:03:38.101Z,14.97
2019-02-15T09:06:07.583Z,16.70
2019-02-15T09:08:37.260Z,14.90
2019-02-15T09:11:06.813Z,20.57
2019-02-15T09:13:36.303Z,20.10
2019-02-15T09:16:10.410Z,15.80
2019-02-15T09:18:36.967Z,16.40
2019-02-15T09:21:06.515Z,18.60
2019-02-15T09:23:36.079Z,18.57
2019-02-15T09:26:05.882Z,15.93
2019-02-15T09:28:42.724Z,19.90
2019-02-15T09:31:12.574Z,19.73
2019-02-15T09:33:42.041Z,19.13
2019-02-15T09:36:11.531Z,24.13
2019-02-15T09:38:41.379Z,23.43
2019-02-15T09:41:12.492Z,21.53
2019-02-15T09:43:41.982Z,19.50
2019-02-15T09:46:19.573Z,14.23
2019-02-15T09:48:42.714Z,16.00
2019-02-15T09:51:12.145Z,16.07
2019-02-15T09:53:41.622Z,15.53
2019-02-15T09:56:11.096Z,15.30
2019-02-15T09:58:40.744Z,16.27
2019-02-15T10:01:10.235Z,16.53
2019-02-15T10:03:39.717Z,16.83
2019-02-15T10:06:09.216Z,19.00
2019-02-15T10:08:38.735Z,13.30
2019-02-15T10:11:08.243Z,18.70
2019-02-15T10:13:37.766Z,12.77
2019-02-15T10:16:07.245Z,15.03
2019-02-15T10:18:36.735Z,16.42
2019-02-15T10:21:06.221Z,15.20
2019-02-15T10:23:35.706Z,15.38
2019-02-15T10:26:05.350Z,14.60
2019-02-15T10:28:34.831Z,13.45
2019-02-15T10:31:04.406Z,15.18
2019-02-15T10:33:33.893Z,16.55
2019-02-15T10:36:03.351Z,14.85
2019-02-15T10:38:32.853Z,14.45
2019-02-15T10:41:02.352Z,13.38
2019-02-15T10:43:31.917Z,11.08
2019-02-15T10:46:01.404Z,13.25
2019-02-15T10:48:30.879Z,15.65
2019-02-15T10:51:00.356Z,16.93
2019-02-15T10:53:29.841Z,17.00
2019-02-15T10:55:59.309Z,16.05
2019-02-15T10:58:29.072Z,19.90
2019-02-15T11:00:58.553Z,21.33
2019-02-15T11:03:28.039Z,13.23
2019-02-15T11:05:57.511Z,14.83
2019-02-15T11:08:27.287Z,13.93
2019-02-15T11:10:57.319Z,18.00
2019-02-15T11:13:27.114Z,17.87
2019-02-15T11:15:56.937Z,16.23
2019-02-15T11:18:26.746Z,13.83
2019-02-15T11:20:56.219Z,14.90
2019-02-15T11:23:25.701Z,14.37
2019-02-15T11:25:55.210Z,14.05
2019-02-15T11:28:24.967Z,10.23
2019-02-15T11:30:54.523Z,11.15
2019-02-15T11:33:24.141Z,11.63
2019-02-15T11:35:53.611Z,6.42
2019-02-15T11:38:23.082Z,7.65
2019-02-15T11:40:52.561Z,7.25
2019-02-15T11:43:22.039Z,5.62
2019-02-15T11:45:51.536Z,5.42
2019-02-15T11:48:21.028Z,5.92
2019-02-15T11:50:50.506Z,6.45
2019-02-15T11:53:19.967Z,4.72
2019-02-15T11:55:49.432Z,6.05
2019-02-15T11:58:18.914Z,4.35
2019-02-15T12:00:48.406Z,4.77
2019-02-15T12:03:17.877Z,2.80
2019-02-15T12:05:47.352Z,3.12
2019-02-15T12:08:17.176Z,4.53
2019-02-15T12:10:46.639Z,6.60
2019-02-15T12:13:16.158Z,5.43
2019-02-15T12:15:45.625Z,5.00
2019-02-15T12:18:15.400Z,4.70
2019-02-15T12:20:44.868Z,3.70
2019-02-15T12:23:14.387Z,5.03
2019-02-15T12:25:43.847Z,4.70
2019-02-15T12:28:13.342Z,3.58
2019-02-15T12:30:43.085Z,6.97
2019-02-15T12:33:12.578Z,4.37
2019-02-15T12:35:42.356Z,4.60
2019-02-15T12:38:11.834Z,2.00
2019-02-15T12:40:41.577Z,3.95
2019-02-15T12:43:11.054Z,5.40
2019-02-15T12:45:40.509Z,3.30
2019-02-15T12:48:10.006Z,2.95
2019-02-15T12:50:39.468Z,2.90
2019-02-15T12:53:09.121Z,2.90
2019-02-15T12:55:38.578Z,2.62
2019-02-15T12:58:08.052Z,3.95
2019-02-15T13:00:37.550Z,3.37
2019-02-15T13:03:07.336Z,5.53
2019-02-15T13:05:36.810Z,3.30
2019-02-15T13:08:06.298Z,3.40
2019-02-15T13:10:37.645Z,2.53
2019-02-15T13:13:07.107Z,3.20
2019-02-15T13:15:36.579Z,3.77
2019-02-15T13:18:06.409Z,3.57
2019-02-15T13:20:35.871Z,2.70
2019-02-15T13:23:05.650Z,3.40
2019-02-15T13:25:37.062Z,5.43
2019-02-15T13:28:06.590Z,3.63
2019-02-15T13:30:36.069Z,4.13
2019-02-15T13:33:05.538Z,3.57
2019-02-15T13:35:35.025Z,3.52
2019-02-15T13:38:04.496Z,3.40
2019-02-15T13:40:34.156Z,4.15
2019-02-15T13:43:03.633Z,3.67
2019-02-15T13:45:33.095Z,2.98
2019-02-15T13:48:02.550Z,4.60
2019-02-15T13:50:32.033Z,4.83
2019-02-15T13:53:01.973Z,1.47
2019-02-15T13:55:31.442Z,2.40
2019-02-15T13:58:00.898Z,1.90
2019-02-15T14:00:30.398Z,3.33
2019-02-15T14:02:59.848Z,2.65
2019-02-15T14:05:29.326Z,2.13
2019-02-15T14:07:58.780Z,1.47
2019-02-15T14:10:28.253Z,1.50
2019-02-15T14:12:57.714Z,3.00
2019-02-15T14:15:27.194Z,1.80
2019-02-15T14:17:56.653Z,1.60
2019-02-15T14:20:26.554Z,2.72
2019-02-15T14:22:56.028Z,2.83
2019-02-15T14:25:25.514Z,2.83
2019-02-15T14:27:55.354Z,1.43
2019-02-15T14:30:25.181Z,1.27
2019-02-15T14:32:54.665Z,1.77
2019-02-15T14:35:24.128Z,1.72
2019-02-15T14:37:54.051Z,1.45
2019-02-15T14:40:23.521Z,2.03
2019-02-15T14:42:52.998Z,1.87
2019-02-15T14:45:22.583Z,3.77
2019-02-15T14:47:55.035Z,1.93
2019-02-15T14:50:23.516Z,2.37
2019-02-15T14:52:52.995Z,2.53
2019-02-15T14:55:22.751Z,3.13
2019-02-15T14:57:52.221Z,4.43
2019-02-15T15:00:21.690Z,2.30
2019-02-15T15:09:50.351Z,2.33
2019-02-15T15:12:19.820Z,2.67
2019-02-15T15:14:49.276Z,2.40
2019-02-15T15:17:18.745Z,2.67
2019-02-15T15:19:48.210Z,1.92
2019-02-15T15:22:17.713Z,1.40
2019-02-15T15:24:47.197Z,1.40
2019-02-15T15:27:16.649Z,1.83
2019-02-15T15:29:46.117Z,3.27
2019-02-15T15:32:15.572Z,2.03
2019-02-15T15:34:45.069Z,2.60
2019-02-15T15:37:16.424Z,1.80
2019-02-15T15:39:46.008Z,1.50
2019-02-15T15:42:15.545Z,2.00
2019-02-15T15:44:45.026Z,2.10
2019-02-15T15:47:14.533Z,2.10
2019-02-15T15:49:44.019Z,2.00
2019-02-15T15:52:13.494Z,2.77
2019-02-15T15:54:43.294Z,2.10
2019-02-15T15:57:12.763Z,2.17
2019-02-15T15:59:42.292Z,6.00
2019-02-15T16:02:11.768Z,7.73
2019-02-15T16:04:41.575Z,4.27
2019-02-15T16:07:11.045Z,4.00
2019-02-15T16:09:40.496Z,4.37
2019-02-15T16:12:09.997Z,5.00
2019-02-15T16:14:39.468Z,8.87
2019-02-15T16:17:08.977Z,9.80
2019-02-15T16:19:40.701Z,5.43
2019-02-15T16:22:09.614Z,8.90
2019-02-15T16:24:39.083Z,6.20
2019-02-15T16:27:08.630Z,5.53
2019-02-15T16:29:38.465Z,5.70
2019-02-15T16:32:07.946Z,4.80
2019-02-15T16:34:37.774Z,7.10
2019-02-15T16:37:07.232Z,4.53
2019-02-15T16:39:36.711Z,4.53
2019-02-15T16:42:06.256Z,9.73
2019-02-15T16:44:35.732Z,5.43
2019-02-15T16:47:05.213Z,8.47
2019-02-15T16:49:34.695Z,5.50
2019-02-15T16:52:04.157Z,6.63
2019-02-15T16:54:33.671Z,3.87
2019-02-15T16:57:06.514Z,9.67
2019-02-15T16:59:36.695Z,8.97
2019-02-15T17:02:06.803Z,6.43
2019-02-15T17:04:36.247Z,7.17
2019-02-15T17:07:06.051Z,4.67
2019-02-15T17:09:35.774Z,6.87
2019-02-15T17:12:05.263Z,6.83
2019-02-15T17:14:34.718Z,6.13
2019-02-15T17:17:04.178Z,5.60
2019-02-15T17:19:33.631Z,9.47
2019-02-15T17:22:03.786Z,7.97
2019-02-15T17:24:33.593Z,5.10
2019-02-15T17:27:03.086Z,6.63
2019-02-15T17:29:32.927Z,5.47
2019-02-15T17:32:02.380Z,9.80
2019-02-15T17:34:31.903Z,7.40
2019-02-15T17:37:01.403Z,7.27
2019-02-15T17:39:31.608Z,7.17
2019-02-15T17:42:01.071Z,7.77
2019-02-15T17:44:31.095Z,6.03
2019-02-15T17:47:00.565Z,8.07
2019-02-15T17:49:30.023Z,6.43
2019-02-15T17:51:59.494Z,6.60
2019-02-15T17:54:28.941Z,6.10
2019-02-15T17:56:58.426Z,8.00
2019-02-15T17:59:27.881Z,12.70
2019-02-15T18:01:57.630Z,13.13
2019-02-15T18:04:27.084Z,13.73
2019-02-15T18:06:56.556Z,16.47
2019-02-15T18:09:26.031Z,10.67
2019-02-15T18:11:55.514Z,10.27
2019-02-15T18:14:24.966Z,12.83
2019-02-15T18:16:54.439Z,12.17
2019-02-15T18:19:31.451Z,12.57
2019-02-15T18:22:02.912Z,10.73
2019-02-15T18:24:32.101Z,9.23
2019-02-15T18:27:01.939Z,10.30
2019-02-15T18:29:31.713Z,14.50
2019-02-15T18:32:01.185Z,14.27
2019-02-15T18:34:30.931Z,11.37
2019-02-15T18:37:00.418Z,8.00
2019-02-15T18:39:29.880Z,12.37
2019-02-15T18:41:59.454Z,10.17
2019-02-15T18:44:29.257Z,15.30
2019-02-15T18:46:58.723Z,9.57
2019-02-15T18:49:28.191Z,12.67
2019-02-15T18:51:57.674Z,11.80
2019-02-15T18:54:27.211Z,11.53
2019-02-15T18:56:56.676Z,16.57
2019-02-15T18:59:26.407Z,13.97
2019-02-15T19:01:55.985Z,11.10
2019-02-15T19:04:25.475Z,11.20
2019-02-15T19:06:54.966Z,14.77
2019-02-15T19:09:24.426Z,12.23
2019-02-15T19:11:53.898Z,14.40
2019-02-15T19:14:23.641Z,14.43
2019-02-15T19:16:53.114Z,18.40
2019-02-15T19:19:28.814Z,19.73
2019-02-15T19:21:55.713Z,21.77
2019-02-15T19:24:25.190Z,18.97
2019-02-15T19:26:54.714Z,19.47
2019-02-15T19:29:24.468Z,15.63
2019-02-15T19:31:53.972Z,17.67
2019-02-15T19:34:23.519Z,18.83
2019-02-15T19:36:53.406Z,13.23
2019-02-15T19:39:22.879Z,19.10
2019-02-15T19:41:52.365Z,17.13
2019-02-15T19:44:21.826Z,19.60
2019-02-15T19:46:51.304Z,16.50
2019-02-15T19:49:20.769Z,19.27
2019-02-15T19:51:50.312Z,16.97
2019-02-15T19:54:19.772Z,18.47
2019-02-15T19:56:49.546Z,18.00
2019-02-15T19:59:19.183Z,18.97
2019-02-15T20:01:48.672Z,19.57
2019-02-15T20:04:18.478Z,21.47
2019-02-15T20:06:48.069Z,19.93
2019-02-15T20:09:17.782Z,19.57
2019-02-15T20:11:47.608Z,15.87
2019-02-15T20:14:17.068Z,16.80
2019-02-15T20:16:46.542Z,21.63
2019-02-15T20:19:16.042Z,18.57
2019-02-15T20:21:45.499Z,19.47
2019-02-15T20:24:15.362Z,18.30
2019-02-15T20:26:44.844Z,17.73
2019-02-15T20:29:14.319Z,15.50
2019-02-15T20:31:43.768Z,19.00
2019-02-15T20:34:13.246Z,19.17
2019-02-15T20:36:42.716Z,19.77
2019-02-15T20:39:12.189Z,17.47
2019-02-15T20:41:41.635Z,17.57
2019-02-15T20:44:11.305Z,22.30
2019-02-15T20:46:40.763Z,17.47
2019-02-15T20:49:10.610Z,15.33
2019-02-15T20:51:40.071Z,16.00
2019-02-15T20:54:09.542Z,19.33
2019-02-15T20:56:39.020Z,17.73
2019-02-15T20:59:08.885Z,16.13
2019-02-15T21:01:38.339Z,20.70
2019-02-15T21:04:07.820Z,17.87
2019-02-15T21:06:37.300Z,16.03
2019-02-15T21:09:06.767Z,16.70
2019-02-15T21:11:36.276Z,16.33
2019-02-15T21:14:05.714Z,18.33
2019-02-15T21:16:35.185Z,13.03
2019-02-15T21:19:04.650Z,16.07
2019-02-15T21:21:34.407Z,16.90
2019-02-15T21:24:03.991Z,18.77
2019-02-15T21:26:33.487Z,19.23
2019-02-15T21:29:03.135Z,13.07
2019-02-15T21:31:32.601Z,20.40
2019-02-15T21:34:02.069Z,15.20
2019-02-15T21:36:31.524Z,16.87
2019-02-15T21:39:01.355Z,18.13
2019-02-15T21:41:30.830Z,14.73
2019-02-15T21:44:00.339Z,17.83
2019-02-15T21:46:30.069Z,20.33
2019-02-15T21:48:59.555Z,17.23
2019-02-15T21:51:29.013Z,18.23
2019-02-15T21:53:58.478Z,20.30
2019-02-15T21:56:27.946Z,17.83
2019-02-15T21:58:57.718Z,16.97
2019-02-15T22:01:27.216Z,20.63
2019-02-15T22:03:56.687Z,18.73
2019-02-15T22:06:27.783Z,15.17
2019-02-15T22:08:57.992Z,17.40
2019-02-15T22:11:27.465Z,16.13
2019-02-15T22:13:56.949Z,18.77
2019-02-15T22:16:26.406Z,16.40
2019-02-15T22:18:55.896Z,18.23
2019-02-15T22:21:25.363Z,19.13
2019-02-15T22:23:54.855Z,17.30
2019-02-15T22:26:24.315Z,16.83
2019-02-15T22:28:54.131Z,16.67
2019-02-15T22:31:23.674Z,17.20
2019-02-15T22:33:53.158Z,22.50
2019-02-15T22:36:22.644Z,16.07
2019-02-15T22:38:52.114Z,15.70
2019-02-15T22:41:21.886Z,17.90
2019-02-15T22:43:51.366Z,17.80
2019-02-15T22:46:20.826Z,21.10
2019-02-15T22:48:50.307Z,18.53
2019-02-15T22:51:19.956Z,17.67
2019-02-15T22:53:49.438Z,21.70
2019-02-15T22:56:19.208Z,17.07
2019-02-15T22:58:48.692Z,21.20
2019-02-15T23:01:18.593Z,19.83
2019-02-15T23:03:48.071Z,18.87
2019-02-15T23:06:17.703Z,18.70
2019-02-15T23:08:47.182Z,17.73
2019-02-15T23:11:16.718Z,18.33
2019-02-15T23:13:46.604Z,20.27
2019-02-15T23:16:16.069Z,17.17
2019-02-15T23:18:45.616Z,19.37
2019-02-15T23:21:15.128Z,19.30
2019-02-15T23:23:44.867Z,18.00
2019-02-15T23:26:14.346Z,17.70
2019-02-15T23:28:43.827Z,21.77
2019-02-15T23:31:13.287Z,20.47
2019-02-15T23:33:42.940Z,17.63
2019-02-15T23:36:12.400Z,20.60
2019-02-15T23:38:41.864Z,20.00
2019-02-15T23:41:11.331Z,18.50
2019-02-15T23:43:40.808Z,19.80
2019-02-15T23:46:10.667Z,22.23
2019-02-15T23:48:40.186Z,24.63
2019-02-15T23:51:09.610Z,20.33
2019-02-15T23:53:39.346Z,22.40
2019-02-15T23:56:08.824Z,22.33
2019-02-15T23:58:38.317Z,22.10
